sensor_id;sensor_type;location;lat;lon;timestamp;P1;durP1;ratioP1;P2;durP2;ratioP2
54517;SDS011;40423;53.176;6.002;2023-07-16T00:02:03;13.88;;;5.13;;
54517;SDS011;40423;53.176;6.002;2023-07-16T00:04:30;15.18;;;4.63;;
54517;SDS011;40423;53.176;6.002;2023-07-16T00:06:56;17.15;;;4.72;;
54517;SDS011;40423;53.176;6.002;2023-07-16T00:09:22;17.17;;;4.40;;
54517;SDS011;40423;53.176;6.002;2023-07-16T00:11:49;15.15;;;4.60;;
54517;SDS011;40423;53.176;6.002;2023-07-16T00:14:14;14.43;;;4.28;;
54517;SDS011;40423;53.176;6.002;2023-07-16T00:16:40;15.73;;;4.43;;
54517;SDS011;40423;53.176;6.002;2023-07-16T00:19:06;10.10;;;4.05;;
54517;SDS011;40423;53.176;6.002;2023-07-16T00:21:32;12.88;;;4.10;;
54517;SDS011;40423;53.176;6.002;2023-07-16T00:23:58;12.13;;;3.50;;
54517;SDS011;40423;53.176;6.002;2023-07-16T00:26:24;10.13;;;3.85;;
54517;SDS011;40423;53.176;6.002;2023-07-16T00:28:50;12.25;;;3.30;;
54517;SDS011;40423;53.176;6.002;2023-07-16T00:31:15;8.32;;;3.03;;
54517;SDS011;40423;53.176;6.002;2023-07-16T00:33:41;8.73;;;3.50;;
54517;SDS011;40423;53.176;6.002;2023-07-16T00:36:07;11.15;;;3.50;;
54517;SDS011;40423;53.176;6.002;2023-07-16T00:38:32;11.23;;;3.33;;
54517;SDS011;40423;53.176;6.002;2023-07-16T00:40:58;10.20;;;3.22;;
54517;SDS011;40423;53.176;6.002;2023-07-16T00:43:25;8.02;;;3.40;;
54517;SDS011;40423;53.176;6.002;2023-07-16T00:45:50;9.45;;;3.17;;
54517;SDS011;40423;53.176;6.002;2023-07-16T00:48:16;10.55;;;3.42;;
54517;SDS011;40423;53.176;6.002;2023-07-16T00:50:42;14.38;;;3.53;;
54517;SDS011;40423;53.176;6.002;2023-07-16T00:53:08;11.18;;;3.83;;
54517;SDS011;40423;53.176;6.002;2023-07-16T00:55:35;11.35;;;4.05;;
54517;SDS011;40423;53.176;6.002;2023-07-16T00:58:03;15.55;;;3.97;;
54517;SDS011;40423;53.176;6.002;2023-07-16T01:00:35;13.27;;;3.70;;
54517;SDS011;40423;53.176;6.002;2023-07-16T01:03:02;15.25;;;3.38;;
54517;SDS011;40423;53.176;6.002;2023-07-16T01:05:34;12.35;;;3.50;;
54517;SDS011;40423;53.176;6.002;2023-07-16T01:08:07;13.30;;;3.25;;
54517;SDS011;40423;53.176;6.002;2023-07-16T01:10:35;10.07;;;3.78;;
54517;SDS011;40423;53.176;6.002;2023-07-16T01:13:02;13.05;;;2.85;;
54517;SDS011;40423;53.176;6.002;2023-07-16T01:15:28;10.48;;;3.92;;
54517;SDS011;40423;53.176;6.002;2023-07-16T01:17:54;11.45;;;3.00;;
54517;SDS011;40423;53.176;6.002;2023-07-16T01:20:19;10.98;;;3.78;;
54517;SDS011;40423;53.176;6.002;2023-07-16T01:31:32;10.88;;;3.55;;
54517;SDS011;40423;53.176;6.002;2023-07-16T01:33:59;14.30;;;4.00;;
54517;SDS011;40423;53.176;6.002;2023-07-16T01:36:28;10.73;;;3.58;;
54517;SDS011;40423;53.176;6.002;2023-07-16T01:38:56;15.60;;;5.32;;
54517;SDS011;40423;53.176;6.002;2023-07-16T01:41:22;9.27;;;3.80;;
54517;SDS011;40423;53.176;6.002;2023-07-16T01:43:49;11.48;;;3.60;;
54517;SDS011;40423;53.176;6.002;2023-07-16T01:46:15;7.85;;;3.08;;
54517;SDS011;40423;53.176;6.002;2023-07-16T01:48:41;15.73;;;4.55;;
54517;SDS011;40423;53.176;6.002;2023-07-16T01:51:07;7.70;;;2.70;;
54517;SDS011;40423;53.176;6.002;2023-07-16T01:53:33;12.63;;;3.55;;
54517;SDS011;40423;53.176;6.002;2023-07-16T01:56:00;11.82;;;4.13;;
54517;SDS011;40423;53.176;6.002;2023-07-16T01:58:27;13.77;;;3.88;;
54517;SDS011;40423;53.176;6.002;2023-07-16T02:00:53;10.38;;;3.45;;
54517;SDS011;40423;53.176;6.002;2023-07-16T02:03:19;12.10;;;3.38;;
54517;SDS011;40423;53.176;6.002;2023-07-16T02:05:44;11.52;;;3.45;;
54517;SDS011;40423;53.176;6.002;2023-07-16T02:08:10;9.05;;;2.65;;
54517;SDS011;40423;53.176;6.002;2023-07-16T02:10:36;9.57;;;2.50;;
54517;SDS011;40423;53.176;6.002;2023-07-16T02:13:01;9.75;;;2.85;;
54517;SDS011;40423;53.176;6.002;2023-07-16T02:15:27;10.18;;;3.00;;
54517;SDS011;40423;53.176;6.002;2023-07-16T02:17:53;9.73;;;3.10;;
54517;SDS011;40423;53.176;6.002;2023-07-16T02:20:19;9.23;;;2.60;;
54517;SDS011;40423;53.176;6.002;2023-07-16T02:22:44;8.73;;;2.83;;
54517;SDS011;40423;53.176;6.002;2023-07-16T02:25:10;10.43;;;3.20;;
54517;SDS011;40423;53.176;6.002;2023-07-16T02:27:36;10.95;;;3.75;;
54517;SDS011;40423;53.176;6.002;2023-07-16T02:30:02;7.05;;;2.88;;
54517;SDS011;40423;53.176;6.002;2023-07-16T02:32:28;10.95;;;3.58;;
54517;SDS011;40423;53.176;6.002;2023-07-16T02:34:54;11.88;;;3.95;;
54517;SDS011;40423;53.176;6.002;2023-07-16T02:37:19;9.65;;;3.55;;
54517;SDS011;40423;53.176;6.002;2023-07-16T02:39:45;13.35;;;3.90;;
54517;SDS011;40423;53.176;6.002;2023-07-16T02:42:14;13.75;;;4.22;;
54517;SDS011;40423;53.176;6.002;2023-07-16T02:44:40;13.18;;;4.47;;
54517;SDS011;40423;53.176;6.002;2023-07-16T02:47:10;11.05;;;4.75;;
54517;SDS011;40423;53.176;6.002;2023-07-16T02:49:36;12.40;;;3.95;;
54517;SDS011;40423;53.176;6.002;2023-07-16T02:52:02;12.65;;;4.65;;
54517;SDS011;40423;53.176;6.002;2023-07-16T02:54:28;11.57;;;4.57;;
54517;SDS011;40423;53.176;6.002;2023-07-16T02:56:54;10.43;;;4.75;;
54517;SDS011;40423;53.176;6.002;2023-07-16T02:59:19;9.93;;;4.30;;
54517;SDS011;40423;53.176;6.002;2023-07-16T03:01:45;7.78;;;3.47;;
54517;SDS011;40423;53.176;6.002;2023-07-16T03:04:11;9.90;;;4.20;;
54517;SDS011;40423;53.176;6.002;2023-07-16T03:06:36;11.32;;;3.92;;
54517;SDS011;40423;53.176;6.002;2023-07-16T03:09:03;10.40;;;4.32;;
54517;SDS011;40423;53.176;6.002;2023-07-16T03:11:29;11.13;;;4.43;;
54517;SDS011;40423;53.176;6.002;2023-07-16T03:13:54;13.27;;;4.47;;
54517;SDS011;40423;53.176;6.002;2023-07-16T03:16:20;10.13;;;4.15;;
54517;SDS011;40423;53.176;6.002;2023-07-16T03:18:46;17.05;;;4.82;;
54517;SDS011;40423;53.176;6.002;2023-07-16T03:21:12;10.50;;;4.45;;
54517;SDS011;40423;53.176;6.002;2023-07-16T03:23:37;6.70;;;3.85;;
54517;SDS011;40423;53.176;6.002;2023-07-16T03:26:03;10.63;;;4.50;;
54517;SDS011;40423;53.176;6.002;2023-07-16T03:28:29;9.57;;;4.28;;
54517;SDS011;40423;53.176;6.002;2023-07-16T03:30:55;9.45;;;4.45;;
54517;SDS011;40423;53.176;6.002;2023-07-16T03:33:20;12.20;;;4.90;;
54517;SDS011;40423;53.176;6.002;2023-07-16T03:35:47;11.05;;;5.10;;
54517;SDS011;40423;53.176;6.002;2023-07-16T03:38:13;13.15;;;5.18;;
54517;SDS011;40423;53.176;6.002;2023-07-16T03:40:41;11.18;;;4.78;;
54517;SDS011;40423;53.176;6.002;2023-07-16T03:43:08;9.25;;;4.50;;
54517;SDS011;40423;53.176;6.002;2023-07-16T03:45:33;17.25;;;4.55;;
54517;SDS011;40423;53.176;6.002;2023-07-16T03:47:59;12.30;;;4.90;;
54517;SDS011;40423;53.176;6.002;2023-07-16T03:50:25;14.25;;;4.95;;
54517;SDS011;40423;53.176;6.002;2023-07-16T03:52:50;11.18;;;4.97;;
54517;SDS011;40423;53.176;6.002;2023-07-16T03:55:16;13.73;;;5.38;;
54517;SDS011;40423;53.176;6.002;2023-07-16T03:57:42;13.98;;;6.15;;
54517;SDS011;40423;53.176;6.002;2023-07-16T04:00:08;14.50;;;5.25;;
54517;SDS011;40423;53.176;6.002;2023-07-16T04:02:35;12.05;;;5.10;;
54517;SDS011;40423;53.176;6.002;2023-07-16T04:05:01;20.02;;;5.80;;
54517;SDS011;40423;53.176;6.002;2023-07-16T04:07:27;13.40;;;5.10;;
54517;SDS011;40423;53.176;6.002;2023-07-16T04:09:53;12.65;;;5.30;;
54517;SDS011;40423;53.176;6.002;2023-07-16T04:12:19;9.10;;;5.55;;
54517;SDS011;40423;53.176;6.002;2023-07-16T04:14:44;14.65;;;6.07;;
54517;SDS011;40423;53.176;6.002;2023-07-16T04:17:11;14.40;;;6.45;;
54517;SDS011;40423;53.176;6.002;2023-07-16T04:19:37;17.42;;;6.20;;
54517;SDS011;40423;53.176;6.002;2023-07-16T04:22:03;16.13;;;7.28;;
54517;SDS011;40423;53.176;6.002;2023-07-16T04:24:29;17.10;;;6.28;;
54517;SDS011;40423;53.176;6.002;2023-07-16T04:26:55;14.88;;;6.47;;
54517;SDS011;40423;53.176;6.002;2023-07-16T04:29:21;14.65;;;6.55;;
54517;SDS011;40423;53.176;6.002;2023-07-16T04:31:47;12.65;;;6.18;;
54517;SDS011;40423;53.176;6.002;2023-07-16T04:34:13;14.23;;;5.97;;
54517;SDS011;40423;53.176;6.002;2023-07-16T04:36:38;18.05;;;6.70;;
54517;SDS011;40423;53.176;6.002;2023-07-16T04:39:04;14.35;;;5.90;;
54517;SDS011;40423;53.176;6.002;2023-07-16T04:41:30;12.18;;;6.00;;
54517;SDS011;40423;53.176;6.002;2023-07-16T04:43:56;11.20;;;6.22;;
54517;SDS011;40423;53.176;6.002;2023-07-16T04:46:22;18.70;;;7.10;;
54517;SDS011;40423;53.176;6.002;2023-07-16T04:48:47;14.00;;;6.72;;
54517;SDS011;40423;53.176;6.002;2023-07-16T04:51:13;12.50;;;6.63;;
54517;SDS011;40423;53.176;6.002;2023-07-16T04:53:39;12.30;;;5.93;;
54517;SDS011;40423;53.176;6.002;2023-07-16T04:56:05;16.27;;;5.78;;
54517;SDS011;40423;53.176;6.002;2023-07-16T04:58:37;15.10;;;5.75;;
54517;SDS011;40423;53.176;6.002;2023-07-16T05:01:03;17.58;;;6.70;;
54517;SDS011;40423;53.176;6.002;2023-07-16T05:03:28;12.80;;;6.15;;
54517;SDS011;40423;53.176;6.002;2023-07-16T05:05:54;13.32;;;6.80;;
54517;SDS011;40423;53.176;6.002;2023-07-16T05:08:20;14.85;;;7.55;;
54517;SDS011;40423;53.176;6.002;2023-07-16T05:10:46;17.60;;;6.88;;
54517;SDS011;40423;53.176;6.002;2023-07-16T05:13:11;18.67;;;6.43;;
54517;SDS011;40423;53.176;6.002;2023-07-16T05:15:37;14.40;;;7.00;;
54517;SDS011;40423;53.176;6.002;2023-07-16T05:18:03;17.42;;;7.28;;
54517;SDS011;40423;53.176;6.002;2023-07-16T05:20:29;17.08;;;7.65;;
54517;SDS011;40423;53.176;6.002;2023-07-16T05:22:55;14.18;;;6.95;;
54517;SDS011;40423;53.176;6.002;2023-07-16T05:25:21;14.38;;;7.20;;
54517;SDS011;40423;53.176;6.002;2023-07-16T05:27:46;19.85;;;7.97;;
54517;SDS011;40423;53.176;6.002;2023-07-16T05:30:12;13.05;;;7.10;;
54517;SDS011;40423;53.176;6.002;2023-07-16T05:32:38;14.70;;;6.90;;
54517;SDS011;40423;53.176;6.002;2023-07-16T05:35:03;15.23;;;6.50;;
54517;SDS011;40423;53.176;6.002;2023-07-16T05:37:30;16.20;;;6.95;;
54517;SDS011;40423;53.176;6.002;2023-07-16T05:39:55;13.10;;;6.65;;
54517;SDS011;40423;53.176;6.002;2023-07-16T05:42:21;14.00;;;6.25;;
54517;SDS011;40423;53.176;6.002;2023-07-16T05:44:47;10.98;;;6.07;;
54517;SDS011;40423;53.176;6.002;2023-07-16T05:47:13;14.45;;;6.38;;
54517;SDS011;40423;53.176;6.002;2023-07-16T05:49:38;15.75;;;6.57;;
54517;SDS011;40423;53.176;6.002;2023-07-16T05:52:04;12.55;;;5.55;;
54517;SDS011;40423;53.176;6.002;2023-07-16T05:54:30;14.65;;;6.20;;
54517;SDS011;40423;53.176;6.002;2023-07-16T05:56:56;13.48;;;6.05;;
54517;SDS011;40423;53.176;6.002;2023-07-16T05:59:22;11.13;;;5.30;;
54517;SDS011;40423;53.176;6.002;2023-07-16T06:01:48;11.32;;;4.93;;
54517;SDS011;40423;53.176;6.002;2023-07-16T06:04:14;11.13;;;5.60;;
54517;SDS011;40423;53.176;6.002;2023-07-16T06:06:39;10.50;;;5.47;;
54517;SDS011;40423;53.176;6.002;2023-07-16T06:09:05;13.85;;;5.60;;
54517;SDS011;40423;53.176;6.002;2023-07-16T06:11:31;14.18;;;5.22;;
54517;SDS011;40423;53.176;6.002;2023-07-16T06:13:57;16.40;;;6.00;;
54517;SDS011;40423;53.176;6.002;2023-07-16T06:16:22;11.50;;;5.38;;
54517;SDS011;40423;53.176;6.002;2023-07-16T06:18:48;17.25;;;5.60;;
54517;SDS011;40423;53.176;6.002;2023-07-16T06:21:14;12.70;;;5.43;;
54517;SDS011;40423;53.176;6.002;2023-07-16T06:23:39;12.07;;;5.38;;
54517;SDS011;40423;53.176;6.002;2023-07-16T06:26:05;13.38;;;6.00;;
54517;SDS011;40423;53.176;6.002;2023-07-16T06:28:31;9.88;;;5.57;;
54517;SDS011;40423;53.176;6.002;2023-07-16T06:30:57;13.48;;;6.20;;
54517;SDS011;40423;53.176;6.002;2023-07-16T06:33:23;9.35;;;5.43;;
54517;SDS011;40423;53.176;6.002;2023-07-16T06:35:50;12.30;;;6.05;;
54517;SDS011;40423;53.176;6.002;2023-07-16T06:38:16;14.85;;;5.68;;
54517;SDS011;40423;53.176;6.002;2023-07-16T06:40:51;15.05;;;6.32;;
54517;SDS011;40423;53.176;6.002;2023-07-16T06:43:17;15.13;;;6.18;;
54517;SDS011;40423;53.176;6.002;2023-07-16T06:45:43;12.82;;;6.20;;
54517;SDS011;40423;53.176;6.002;2023-07-16T06:48:09;17.02;;;6.38;;
54517;SDS011;40423;53.176;6.002;2023-07-16T06:50:35;15.52;;;6.13;;
54517;SDS011;40423;53.176;6.002;2023-07-16T06:53:00;9.52;;;5.60;;
54517;SDS011;40423;53.176;6.002;2023-07-16T06:55:26;10.02;;;5.50;;
54517;SDS011;40423;53.176;6.002;2023-07-16T06:57:52;13.98;;;6.22;;
54517;SDS011;40423;53.176;6.002;2023-07-16T07:00:18;9.50;;;5.25;;
54517;SDS011;40423;53.176;6.002;2023-07-16T07:02:43;11.40;;;5.63;;
54517;SDS011;40423;53.176;6.002;2023-07-16T07:05:09;16.70;;;6.25;;
54517;SDS011;40423;53.176;6.002;2023-07-16T07:07:35;13.90;;;6.63;;
54517;SDS011;40423;53.176;6.002;2023-07-16T07:10:01;13.02;;;5.70;;
54517;SDS011;40423;53.176;6.002;2023-07-16T07:12:26;13.73;;;5.82;;
54517;SDS011;40423;53.176;6.002;2023-07-16T07:14:52;13.55;;;5.25;;
54517;SDS011;40423;53.176;6.002;2023-07-16T07:17:18;14.38;;;5.43;;
54517;SDS011;40423;53.176;6.002;2023-07-16T07:19:43;12.00;;;4.80;;
54517;SDS011;40423;53.176;6.002;2023-07-16T07:22:09;12.23;;;5.22;;
54517;SDS011;40423;53.176;6.002;2023-07-16T07:24:35;14.60;;;6.28;;
54517;SDS011;40423;53.176;6.002;2023-07-16T07:27:01;15.40;;;5.30;;
54517;SDS011;40423;53.176;6.002;2023-07-16T07:29:27;13.57;;;5.05;;
54517;SDS011;40423;53.176;6.002;2023-07-16T07:31:53;14.10;;;4.72;;
54517;SDS011;40423;53.176;6.002;2023-07-16T07:34:19;12.85;;;5.10;;
54517;SDS011;40423;53.176;6.002;2023-07-16T07:36:45;12.73;;;6.25;;
54517;SDS011;40423;53.176;6.002;2023-07-16T07:39:11;14.35;;;5.70;;
54517;SDS011;40423;53.176;6.002;2023-07-16T07:41:38;10.90;;;5.10;;
54517;SDS011;40423;53.176;6.002;2023-07-16T07:44:04;10.20;;;4.63;;
54517;SDS011;40423;53.176;6.002;2023-07-16T07:46:30;12.50;;;5.07;;
54517;SDS011;40423;53.176;6.002;2023-07-16T07:48:55;13.50;;;5.43;;
54517;SDS011;40423;53.176;6.002;2023-07-16T07:51:21;12.75;;;4.90;;
54517;SDS011;40423;53.176;6.002;2023-07-16T07:53:47;13.02;;;4.47;;
54517;SDS011;40423;53.176;6.002;2023-07-16T07:56:13;8.45;;;4.40;;
54517;SDS011;40423;53.176;6.002;2023-07-16T07:58:39;10.50;;;4.70;;
54517;SDS011;40423;53.176;6.002;2023-07-16T08:01:08;9.27;;;4.38;;
54517;SDS011;40423;53.176;6.002;2023-07-16T08:03:34;13.25;;;4.85;;
54517;SDS011;40423;53.176;6.002;2023-07-16T08:06:00;11.10;;;4.95;;
54517;SDS011;40423;53.176;6.002;2023-07-16T08:08:26;10.10;;;5.10;;
54517;SDS011;40423;53.176;6.002;2023-07-16T08:10:52;10.32;;;5.10;;
54517;SDS011;40423;53.176;6.002;2023-07-16T08:13:18;11.68;;;4.95;;
54517;SDS011;40423;53.176;6.002;2023-07-16T08:15:44;15.30;;;6.30;;
54517;SDS011;40423;53.176;6.002;2023-07-16T08:18:10;10.50;;;5.53;;
54517;SDS011;40423;53.176;6.002;2023-07-16T08:20:36;11.63;;;5.40;;
54517;SDS011;40423;53.176;6.002;2023-07-16T08:23:02;14.43;;;5.35;;
54517;SDS011;40423;53.176;6.002;2023-07-16T08:25:28;11.70;;;5.05;;
54517;SDS011;40423;53.176;6.002;2023-07-16T08:27:54;11.32;;;5.70;;
54517;SDS011;40423;53.176;6.002;2023-07-16T08:30:20;11.20;;;5.45;;
54517;SDS011;40423;53.176;6.002;2023-07-16T08:32:45;13.90;;;6.32;;
54517;SDS011;40423;53.176;6.002;2023-07-16T08:35:11;16.38;;;5.45;;
54517;SDS011;40423;53.176;6.002;2023-07-16T08:37:41;12.40;;;5.68;;
54517;SDS011;40423;53.176;6.002;2023-07-16T08:40:08;13.63;;;4.97;;
54517;SDS011;40423;53.176;6.002;2023-07-16T08:42:36;12.98;;;5.93;;
54517;SDS011;40423;53.176;6.002;2023-07-16T08:45:09;10.50;;;5.93;;
54517;SDS011;40423;53.176;6.002;2023-07-16T08:47:36;14.68;;;5.90;;
54517;SDS011;40423;53.176;6.002;2023-07-16T08:50:02;15.07;;;5.63;;
54517;SDS011;40423;53.176;6.002;2023-07-16T08:52:28;16.55;;;5.75;;
54517;SDS011;40423;53.176;6.002;2023-07-16T08:54:55;18.92;;;5.88;;
54517;SDS011;40423;53.176;6.002;2023-07-16T08:57:21;12.43;;;5.38;;
54517;SDS011;40423;53.176;6.002;2023-07-16T08:59:48;12.57;;;5.18;;
54517;SDS011;40423;53.176;6.002;2023-07-16T09:02:18;11.57;;;4.63;;
54517;SDS011;40423;53.176;6.002;2023-07-16T09:04:47;10.38;;;4.57;;
54517;SDS011;40423;53.176;6.002;2023-07-16T09:07:14;11.85;;;5.80;;
54517;SDS011;40423;53.176;6.002;2023-07-16T09:09:41;13.00;;;6.07;;
54517;SDS011;40423;53.176;6.002;2023-07-16T09:12:09;12.27;;;5.50;;
54517;SDS011;40423;53.176;6.002;2023-07-16T09:14:37;10.95;;;5.57;;
54517;SDS011;40423;53.176;6.002;2023-07-16T09:17:03;11.10;;;5.15;;
54517;SDS011;40423;53.176;6.002;2023-07-16T09:19:31;11.32;;;5.32;;
54517;SDS011;40423;53.176;6.002;2023-07-16T09:21:58;11.63;;;5.28;;
54517;SDS011;40423;53.176;6.002;2023-07-16T09:24:23;13.43;;;4.70;;
54517;SDS011;40423;53.176;6.002;2023-07-16T09:26:49;13.10;;;4.78;;
54517;SDS011;40423;53.176;6.002;2023-07-16T09:29:16;14.95;;;5.13;;
54517;SDS011;40423;53.176;6.002;2023-07-16T09:32:01;15.82;;;6.15;;
54517;SDS011;40423;53.176;6.002;2023-07-16T09:34:35;17.80;;;5.10;;
54517;SDS011;40423;53.176;6.002;2023-07-16T09:37:01;13.05;;;5.07;;
54517;SDS011;40423;53.176;6.002;2023-07-16T09:39:27;16.90;;;5.40;;
54517;SDS011;40423;53.176;6.002;2023-07-16T09:41:53;10.02;;;4.57;;
54517;SDS011;40423;53.176;6.002;2023-07-16T09:44:22;12.85;;;5.13;;
54517;SDS011;40423;53.176;6.002;2023-07-16T09:46:48;9.27;;;4.50;;
54517;SDS011;40423;53.176;6.002;2023-07-16T09:49:14;14.68;;;4.78;;
54517;SDS011;40423;53.176;6.002;2023-07-16T09:51:40;11.23;;;4.95;;
54517;SDS011;40423;53.176;6.002;2023-07-16T09:54:08;10.60;;;5.13;;
54517;SDS011;40423;53.176;6.002;2023-07-16T09:56:39;11.52;;;5.57;;
54517;SDS011;40423;53.176;6.002;2023-07-16T09:59:13;12.10;;;5.28;;
54517;SDS011;40423;53.176;6.002;2023-07-16T10:01:41;13.88;;;5.25;;
54517;SDS011;40423;53.176;6.002;2023-07-16T10:04:13;11.05;;;5.35;;
54517;SDS011;40423;53.176;6.002;2023-07-16T10:06:53;13.80;;;5.72;;
54517;SDS011;40423;53.176;6.002;2023-07-16T10:09:34;12.43;;;5.25;;
54517;SDS011;40423;53.176;6.002;2023-07-16T10:12:11;8.95;;;5.68;;
54517;SDS011;40423;53.176;6.002;2023-07-16T10:14:41;10.88;;;5.05;;
54517;SDS011;40423;53.176;6.002;2023-07-16T10:17:12;11.63;;;4.47;;
54517;SDS011;40423;53.176;6.002;2023-07-16T10:22:33;10.30;;;4.45;;
54517;SDS011;40423;53.176;6.002;2023-07-16T10:24:59;11.20;;;4.30;;
54517;SDS011;40423;53.176;6.002;2023-07-16T10:27:29;10.02;;;3.47;;
54517;SDS011;40423;53.176;6.002;2023-07-16T10:30:02;9.35;;;4.13;;
54517;SDS011;40423;53.176;6.002;2023-07-16T10:32:30;13.23;;;4.68;;
54517;SDS011;40423;53.176;6.002;2023-07-16T10:34:57;9.02;;;3.67;;
54517;SDS011;40423;53.176;6.002;2023-07-16T10:37:24;10.13;;;3.92;;
54517;SDS011;40423;53.176;6.002;2023-07-16T10:39:51;10.52;;;4.15;;
54517;SDS011;40423;53.176;6.002;2023-07-16T10:42:19;10.98;;;4.03;;
54517;SDS011;40423;53.176;6.002;2023-07-16T10:44:48;9.20;;;3.78;;
54517;SDS011;40423;53.176;6.002;2023-07-16T10:47:18;13.48;;;3.90;;
54517;SDS011;40423;53.176;6.002;2023-07-16T10:49:47;11.75;;;4.07;;
54517;SDS011;40423;53.176;6.002;2023-07-16T10:52:13;10.02;;;3.38;;
54517;SDS011;40423;53.176;6.002;2023-07-16T10:54:42;12.13;;;4.18;;
54517;SDS011;40423;53.176;6.002;2023-07-16T10:57:08;14.32;;;4.60;;
54517;SDS011;40423;53.176;6.002;2023-07-16T10:59:36;10.25;;;3.85;;
54517;SDS011;40423;53.176;6.002;2023-07-16T11:02:03;9.52;;;3.95;;
54517;SDS011;40423;53.176;6.002;2023-07-16T11:04:33;14.43;;;4.32;;
54517;SDS011;40423;53.176;6.002;2023-07-16T11:07:03;10.73;;;4.18;;
54517;SDS011;40423;53.176;6.002;2023-07-16T11:09:33;7.53;;;3.35;;
54517;SDS011;40423;53.176;6.002;2023-07-16T11:12:13;10.35;;;3.47;;
54517;SDS011;40423;53.176;6.002;2023-07-16T11:14:43;10.75;;;3.83;;
54517;SDS011;40423;53.176;6.002;2023-07-16T11:17:10;10.93;;;4.13;;
54517;SDS011;40423;53.176;6.002;2023-07-16T11:19:37;11.27;;;4.22;;
54517;SDS011;40423;53.176;6.002;2023-07-16T11:22:04;12.82;;;3.75;;
54517;SDS011;40423;53.176;6.002;2023-07-16T11:24:41;12.38;;;3.63;;
54517;SDS011;40423;53.176;6.002;2023-07-16T11:27:13;9.77;;;3.80;;
54517;SDS011;40423;53.176;6.002;2023-07-16T11:29:40;9.65;;;4.03;;
54517;SDS011;40423;53.176;6.002;2023-07-16T11:32:10;11.82;;;4.07;;
54517;SDS011;40423;53.176;6.002;2023-07-16T11:34:35;12.35;;;3.75;;
54517;SDS011;40423;53.176;6.002;2023-07-16T11:37:08;13.50;;;3.90;;
54517;SDS011;40423;53.176;6.002;2023-07-16T11:39:35;12.10;;;3.83;;
54517;SDS011;40423;53.176;6.002;2023-07-16T11:42:01;9.57;;;3.70;;
54517;SDS011;40423;53.176;6.002;2023-07-16T11:44:33;15.40;;;4.22;;
54517;SDS011;40423;53.176;6.002;2023-07-16T11:47:00;11.68;;;3.42;;
54517;SDS011;40423;53.176;6.002;2023-07-16T11:49:26;11.07;;;3.25;;
54517;SDS011;40423;53.176;6.002;2023-07-16T11:51:52;14.38;;;4.07;;
54517;SDS011;40423;53.176;6.002;2023-07-16T11:54:17;13.20;;;3.40;;
54517;SDS011;40423;53.176;6.002;2023-07-16T11:56:43;12.82;;;4.35;;
54517;SDS011;40423;53.176;6.002;2023-07-16T11:59:09;15.90;;;3.90;;
54517;SDS011;40423;53.176;6.002;2023-07-16T12:01:34;13.13;;;3.92;;
54517;SDS011;40423;53.176;6.002;2023-07-16T12:04:00;14.00;;;4.60;;
54517;SDS011;40423;53.176;6.002;2023-07-16T12:06:26;14.05;;;3.63;;
54517;SDS011;40423;53.176;6.002;2023-07-16T12:08:51;13.27;;;3.85;;
54517;SDS011;40423;53.176;6.002;2023-07-16T12:11:17;12.35;;;4.22;;
54517;SDS011;40423;53.176;6.002;2023-07-16T12:13:45;12.30;;;4.30;;
54517;SDS011;40423;53.176;6.002;2023-07-16T12:16:11;10.45;;;4.28;;
54517;SDS011;40423;53.176;6.002;2023-07-16T12:18:37;10.50;;;4.22;;
54517;SDS011;40423;53.176;6.002;2023-07-16T12:21:02;11.23;;;3.72;;
54517;SDS011;40423;53.176;6.002;2023-07-16T12:23:28;13.13;;;4.38;;
54517;SDS011;40423;53.176;6.002;2023-07-16T12:25:54;13.15;;;4.70;;
54517;SDS011;40423;53.176;6.002;2023-07-16T12:28:19;10.68;;;4.07;;
54517;SDS011;40423;53.176;6.002;2023-07-16T12:30:45;13.13;;;4.28;;
54517;SDS011;40423;53.176;6.002;2023-07-16T12:33:11;13.38;;;5.47;;
54517;SDS011;40423;53.176;6.002;2023-07-16T12:35:37;15.20;;;4.18;;
54517;SDS011;40423;53.176;6.002;2023-07-16T12:38:02;15.15;;;4.00;;
54517;SDS011;40423;53.176;6.002;2023-07-16T12:40:28;12.00;;;3.90;;
54517;SDS011;40423;53.176;6.002;2023-07-16T12:42:55;12.23;;;3.47;;
54517;SDS011;40423;53.176;6.002;2023-07-16T12:45:20;13.95;;;3.85;;
54517;SDS011;40423;53.176;6.002;2023-07-16T12:47:46;14.75;;;3.97;;
54517;SDS011;40423;53.176;6.002;2023-07-16T12:50:12;15.57;;;4.35;;
54517;SDS011;40423;53.176;6.002;2023-07-16T12:52:38;18.33;;;4.20;;
54517;SDS011;40423;53.176;6.002;2023-07-16T12:55:03;15.23;;;4.55;;
54517;SDS011;40423;53.176;6.002;2023-07-16T12:57:29;12.45;;;3.33;;
54517;SDS011;40423;53.176;6.002;2023-07-16T12:59:55;12.05;;;3.05;;
54517;SDS011;40423;53.176;6.002;2023-07-16T13:02:21;13.30;;;2.97;;
54517;SDS011;40423;53.176;6.002;2023-07-16T13:04:46;16.90;;;3.72;;
54517;SDS011;40423;53.176;6.002;2023-07-16T13:07:12;13.38;;;3.22;;
54517;SDS011;40423;53.176;6.002;2023-07-16T13:09:38;11.27;;;2.85;;
54517;SDS011;40423;53.176;6.002;2023-07-16T13:12:03;13.05;;;3.00;;
54517;SDS011;40423;53.176;6.002;2023-07-16T13:14:29;8.48;;;3.08;;
54517;SDS011;40423;53.176;6.002;2023-07-16T13:16:55;11.40;;;2.97;;
54517;SDS011;40423;53.176;6.002;2023-07-16T13:19:21;11.50;;;2.83;;
54517;SDS011;40423;53.176;6.002;2023-07-16T13:21:46;13.57;;;3.35;;
54517;SDS011;40423;53.176;6.002;2023-07-16T13:24:13;15.25;;;3.72;;
54517;SDS011;40423;53.176;6.002;2023-07-16T13:26:38;18.15;;;4.22;;
54517;SDS011;40423;53.176;6.002;2023-07-16T13:29:04;14.50;;;4.25;;
54517;SDS011;40423;53.176;6.002;2023-07-16T13:31:30;18.98;;;3.95;;
54517;SDS011;40423;53.176;6.002;2023-07-16T13:33:55;18.30;;;3.33;;
54517;SDS011;40423;53.176;6.002;2023-07-16T13:36:21;15.75;;;4.57;;
54517;SDS011;40423;53.176;6.002;2023-07-16T13:38:47;15.23;;;3.70;;
54517;SDS011;40423;53.176;6.002;2023-07-16T13:41:13;18.65;;;4.00;;
54517;SDS011;40423;53.176;6.002;2023-07-16T13:43:39;11.85;;;3.55;;
54517;SDS011;40423;53.176;6.002;2023-07-16T13:46:04;20.55;;;4.53;;
54517;SDS011;40423;53.176;6.002;2023-07-16T13:48:30;12.60;;;3.50;;
54517;SDS011;40423;53.176;6.002;2023-07-16T13:50:55;15.13;;;3.97;;
54517;SDS011;40423;53.176;6.002;2023-07-16T13:53:21;16.90;;;3.78;;
54517;SDS011;40423;53.176;6.002;2023-07-16T13:55:47;13.30;;;3.70;;
54517;SDS011;40423;53.176;6.002;2023-07-16T13:58:13;11.25;;;3.22;;
54517;SDS011;40423;53.176;6.002;2023-07-16T14:00:39;8.32;;;2.88;;
54517;SDS011;40423;53.176;6.002;2023-07-16T14:03:05;11.38;;;2.90;;
54517;SDS011;40423;53.176;6.002;2023-07-16T14:05:31;11.45;;;3.17;;
54517;SDS011;40423;53.176;6.002;2023-07-16T14:08:03;10.10;;;2.35;;
54517;SDS011;40423;53.176;6.002;2023-07-16T14:10:32;9.77;;;2.72;;
54517;SDS011;40423;53.176;6.002;2023-07-16T14:12:58;13.07;;;2.30;;
54517;SDS011;40423;53.176;6.002;2023-07-16T14:15:23;9.13;;;2.20;;
54517;SDS011;40423;53.176;6.002;2023-07-16T14:17:50;11.23;;;2.92;;
54517;SDS011;40423;53.176;6.002;2023-07-16T14:20:15;8.88;;;3.35;;
54517;SDS011;40423;53.176;6.002;2023-07-16T14:22:41;8.82;;;2.67;;
54517;SDS011;40423;53.176;6.002;2023-07-16T14:25:07;9.63;;;2.50;;
54517;SDS011;40423;53.176;6.002;2023-07-16T14:27:34;9.40;;;2.40;;
54517;SDS011;40423;53.176;6.002;2023-07-16T14:30:02;13.60;;;3.10;;
54517;SDS011;40423;53.176;6.002;2023-07-16T14:32:28;17.23;;;2.50;;
54517;SDS011;40423;53.176;6.002;2023-07-16T14:34:56;13.05;;;2.72;;
54517;SDS011;40423;53.176;6.002;2023-07-16T14:37:22;9.68;;;2.63;;
54517;SDS011;40423;53.176;6.002;2023-07-16T14:39:48;9.77;;;3.03;;
54517;SDS011;40423;53.176;6.002;2023-07-16T14:42:15;7.57;;;2.35;;
54517;SDS011;40423;53.176;6.002;2023-07-16T14:44:40;9.90;;;2.58;;